LOT490 ENZV-EPWA
Flight info
| Callsign | LOT490 |
|---|---|
| Flight time | 1h 51m |
| Altitude | 13000 |
| Route | PEVEB L621 AMSEV/N0449F370 L621 ERNOV DCT MAXUM DCT AMROR N983 ELPOL N195 SORIX |
| Aircraft | B738/M-SDE2E3FGHIRWXY/LB1 |
Departure
| Time | 2026-05-06 19:14 |
|---|---|
| Airport | Stavanger Airport, Sola (ENZV) |
Arrival
| Time | 2026-05-06 21:06 |
|---|---|
| Airport | Warsaw Chopin Airport (EPWA) |
| Time | Latitude | Longitude | Altitude | Speed | Heading |
|---|---|---|---|---|---|
| 2026-05-06 18:37 | 58.88058 | 5.62908 | 26 ft | 0 kts | 342° |
| 2026-05-06 19:05 | 58.88057 | 5.62908 | 24 ft | 2 kts | 342° |
| 2026-05-06 19:05 | 58.88033 | 5.62924 | 27 ft | 4 kts | 339° |
| 2026-05-06 19:05 | 58.88008 | 5.62943 | 29 ft | 4 kts | 340° |
| 2026-05-06 19:06 | 58.88000 | 5.62948 | 30 ft | 2 kts | 341° |
| 2026-05-06 19:09 | 58.88002 | 5.62950 | 30 ft | 1 kts | 5° |
| 2026-05-06 19:09 | 58.88002 | 5.62968 | 30 ft | 2 kts | 102° |
| 2026-05-06 19:10 | 58.87995 | 5.63019 | 26 ft | 7 kts | 104° |
| 2026-05-06 19:10 | 58.87970 | 5.63163 | 27 ft | 14 kts | 108° |
| 2026-05-06 19:10 | 58.87942 | 5.63312 | 29 ft | 9 kts | 139° |
| 2026-05-06 19:10 | 58.87879 | 5.63314 | 30 ft | 10 kts | 196° |
| 2026-05-06 19:11 | 58.87812 | 5.63284 | 30 ft | 11 kts | 184° |
| 2026-05-06 19:11 | 58.87735 | 5.63293 | 29 ft | 11 kts | 178° |
| 2026-05-06 19:11 | 58.87644 | 5.63295 | 30 ft | 16 kts | 179° |
| 2026-05-06 19:11 | 58.87514 | 5.63298 | 30 ft | 21 kts | 179° |
| 2026-05-06 19:12 | 58.87362 | 5.63302 | 31 ft | 22 kts | 178° |
| 2026-05-06 19:12 | 58.87211 | 5.63311 | 31 ft | 21 kts | 178° |
| 2026-05-06 19:12 | 58.87076 | 5.63313 | 32 ft | 14 kts | 179° |
| 2026-05-06 19:12 | 58.86993 | 5.63387 | 31 ft | 13 kts | 145° |
| 2026-05-06 19:13 | 58.86950 | 5.63531 | 33 ft | 13 kts | 92° |
| 2026-05-06 19:13 | 58.86951 | 5.63690 | 36 ft | 11 kts | 89° |
| 2026-05-06 19:13 | 58.86962 | 5.63801 | 36 ft | 7 kts | 38° |
| 2026-05-06 19:13 | 58.87000 | 5.63801 | 35 ft | 5 kts | 355° |
| 2026-05-06 19:14 | 58.87086 | 5.63793 | 34 ft | 37 kts | 360° |
| 2026-05-06 19:14 | 58.87587 | 5.63783 | 33 ft | 105 kts | 359° |
| 2026-05-06 19:14 | 58.88502 | 5.63724 | 144 ft | 147 kts | 356° |
| 2026-05-06 19:14 | 58.89493 | 5.63709 | 979 ft | 142 kts | 358° |
| 2026-05-06 19:15 | 58.90558 | 5.63714 | 1537 ft | 162 kts | 359° |
| 2026-05-06 19:15 | 58.91757 | 5.63709 | 1995 ft | 186 kts | 358° |
| 2026-05-06 19:15 | 58.93141 | 5.63654 | 2270 ft | 209 kts | 359° |
| 2026-05-06 19:15 | 58.94654 | 5.63623 | 2681 ft | 225 kts | 359° |
| 2026-05-06 19:16 | 58.96304 | 5.63526 | 3118 ft | 247 kts | 358° |
| 2026-05-06 19:16 | 58.98001 | 5.63453 | 4087 ft | 244 kts | 359° |
| 2026-05-06 19:16 | 58.99745 | 5.63379 | 4912 ft | 253 kts | 358° |
| 2026-05-06 19:16 | 59.01483 | 5.63308 | 5815 ft | 253 kts | 358° |
| 2026-05-06 19:17 | 59.03243 | 5.63280 | 6719 ft | 255 kts | 4° |
| 2026-05-06 19:17 | 59.04947 | 5.64391 | 7459 ft | 266 kts | 29° |
| 2026-05-06 19:17 | 59.06384 | 5.66740 | 8196 ft | 275 kts | 44° |
| 2026-05-06 19:17 | 59.07516 | 5.69803 | 8929 ft | 287 kts | 66° |
| 2026-05-06 19:18 | 59.07837 | 5.73677 | 9687 ft | 296 kts | 92° |
| 2026-05-06 19:18 | 59.07230 | 5.77511 | 10317 ft | 302 kts | 124° |
| 2026-05-06 19:18 | 59.05746 | 5.80397 | 10905 ft | 308 kts | 151° |
| 2026-05-06 19:18 | 59.03727 | 5.81838 | 11086 ft | 323 kts | 176° |
| 2026-05-06 19:19 | 59.01399 | 5.82028 | 11396 ft | 338 kts | 184° |
| 2026-05-06 19:19 | 58.99056 | 5.82036 | 12015 ft | 344 kts | 184° |
| 2026-05-06 19:19 | 58.96650 | 5.82084 | 12818 ft | 346 kts | 184° |
| 2026-05-06 19:19 | 58.94232 | 5.82169 | 13652 ft | 349 kts | 184° |
| 2026-05-06 19:20 | 58.91798 | 5.82975 | 14333 ft | 365 kts | 163° |
| 2026-05-06 19:20 | 58.89640 | 5.85694 | 15056 ft | 379 kts | 139° |
| 2026-05-06 19:20 | 58.88087 | 5.89862 | 15885 ft | 385 kts | 123° |
| 2026-05-06 19:20 | 58.86774 | 5.94409 | 16566 ft | 392 kts | 121° |
| 2026-05-06 19:21 | 58.85419 | 5.99042 | 17180 ft | 397 kts | 127° |
| 2026-05-06 19:21 | 58.83773 | 6.03342 | 17881 ft | 399 kts | 131° |
| 2026-05-06 19:21 | 58.82044 | 6.07553 | 18553 ft | 403 kts | 132° |
| 2026-05-06 19:21 | 58.80285 | 6.11787 | 19170 ft | 406 kts | 133° |
| 2026-05-06 19:22 | 58.78513 | 6.16062 | 19813 ft | 409 kts | 133° |
| 2026-05-06 19:22 | 58.76757 | 6.20324 | 20419 ft | 413 kts | 132° |
| 2026-05-06 19:22 | 58.74966 | 6.24700 | 21016 ft | 416 kts | 132° |
| 2026-05-06 19:22 | 58.73167 | 6.29112 | 21620 ft | 420 kts | 132° |
| 2026-05-06 19:23 | 58.71357 | 6.33552 | 22217 ft | 423 kts | 132° |
| 2026-05-06 19:23 | 58.69538 | 6.38013 | 22810 ft | 426 kts | 133° |
| 2026-05-06 19:23 | 58.67700 | 6.42519 | 23353 ft | 430 kts | 133° |
| 2026-05-06 19:23 | 58.65846 | 6.47057 | 23839 ft | 433 kts | 133° |
| 2026-05-06 19:24 | 58.63977 | 6.51620 | 24292 ft | 437 kts | 133° |
| 2026-05-06 19:24 | 58.62115 | 6.56163 | 24736 ft | 439 kts | 133° |
| 2026-05-06 19:24 | 58.60218 | 6.60781 | 25186 ft | 442 kts | 133° |
| 2026-05-06 19:24 | 58.58304 | 6.65430 | 25621 ft | 445 kts | 133° |
| 2026-05-06 19:25 | 58.56381 | 6.70092 | 26025 ft | 448 kts | 133° |
| 2026-05-06 19:25 | 58.54435 | 6.74801 | 26444 ft | 451 kts | 134° |
| 2026-05-06 19:25 | 58.52472 | 6.79539 | 26871 ft | 454 kts | 134° |
| 2026-05-06 19:25 | 58.50497 | 6.84299 | 27262 ft | 457 kts | 134° |
| 2026-05-06 19:26 | 58.48512 | 6.89074 | 27633 ft | 460 kts | 134° |
| 2026-05-06 19:26 | 58.46517 | 6.93862 | 28052 ft | 462 kts | 134° |
| 2026-05-06 19:26 | 58.44531 | 6.98618 | 28446 ft | 464 kts | 134° |
| 2026-05-06 19:26 | 58.42514 | 7.03437 | 28815 ft | 467 kts | 134° |
| 2026-05-06 19:27 | 58.40478 | 7.08294 | 29166 ft | 470 kts | 135° |
| 2026-05-06 19:27 | 58.38426 | 7.13176 | 29501 ft | 472 kts | 135° |
| 2026-05-06 19:27 | 58.36360 | 7.18083 | 29846 ft | 475 kts | 135° |
| 2026-05-06 19:27 | 58.34287 | 7.22999 | 30187 ft | 477 kts | 135° |
| 2026-05-06 19:28 | 58.32197 | 7.27944 | 30464 ft | 479 kts | 135° |
| 2026-05-06 19:28 | 58.30099 | 7.32899 | 30730 ft | 481 kts | 135° |
| 2026-05-06 19:28 | 58.27997 | 7.37853 | 31039 ft | 482 kts | 135° |
| 2026-05-06 19:28 | 58.25920 | 7.42738 | 31363 ft | 480 kts | 134° |
| 2026-05-06 19:29 | 58.23833 | 7.47644 | 31893 ft | 475 kts | 135° |
| 2026-05-06 19:29 | 58.21758 | 7.52510 | 32367 ft | 472 kts | 135° |
| 2026-05-06 19:29 | 58.19683 | 7.57359 | 32658 ft | 473 kts | 135° |
| 2026-05-06 19:29 | 58.17600 | 7.62210 | 32909 ft | 475 kts | 135° |
| 2026-05-06 19:30 | 58.15512 | 7.67064 | 33245 ft | 474 kts | 135° |
| 2026-05-06 19:30 | 58.13428 | 7.71904 | 33630 ft | 472 kts | 135° |
| 2026-05-06 19:30 | 58.11378 | 7.76655 | 33987 ft | 471 kts | 135° |
| 2026-05-06 19:30 | 58.09301 | 7.81459 | 34231 ft | 471 kts | 135° |
| 2026-05-06 19:31 | 58.07221 | 7.86258 | 34454 ft | 472 kts | 135° |
| 2026-05-06 19:31 | 58.05137 | 7.91058 | 34685 ft | 473 kts | 135° |
| 2026-05-06 19:31 | 58.00966 | 8.00635 | 35199 ft | 471 kts | 135° |
| 2026-05-06 19:32 | 57.98885 | 8.05401 | 35507 ft | 470 kts | 135° |
| 2026-05-06 19:32 | 57.96800 | 8.10165 | 35722 ft | 470 kts | 135° |
| 2026-05-06 19:32 | 57.94706 | 8.14939 | 35907 ft | 471 kts | 135° |
| 2026-05-06 19:32 | 57.92644 | 8.19629 | 36101 ft | 471 kts | 135° |
| 2026-05-06 19:33 | 57.90552 | 8.24380 | 36395 ft | 470 kts | 134° |
| 2026-05-06 19:33 | 57.88462 | 8.29117 | 36624 ft | 470 kts | 134° |
| 2026-05-06 19:33 | 57.86375 | 8.33838 | 36809 ft | 470 kts | 134° |
| 2026-05-06 19:33 | 57.84276 | 8.38573 | 36964 ft | 472 kts | 134° |
| 2026-05-06 19:34 | 57.80048 | 8.48084 | 36976 ft | 475 kts | 134° |
| 2026-05-06 19:34 | 57.75827 | 8.57552 | 36968 ft | 470 kts | 135° |
| 2026-05-06 19:35 | 57.71650 | 8.66883 | 36976 ft | 466 kts | 135° |
| 2026-05-06 19:35 | 57.67506 | 8.76098 | 36981 ft | 465 kts | 135° |
| 2026-05-06 19:36 | 57.63336 | 8.85330 | 36982 ft | 465 kts | 135° |
| 2026-05-06 19:36 | 57.59159 | 8.94544 | 36976 ft | 464 kts | 135° |
| 2026-05-06 19:37 | 57.54972 | 9.03746 | 36986 ft | 465 kts | 135° |
| 2026-05-06 19:37 | 57.51493 | 9.11365 | 36984 ft | 465 kts | 135° |
| 2026-05-06 19:38 | 57.46602 | 9.22035 | 36985 ft | 466 kts | 135° |
| 2026-05-06 19:38 | 57.43094 | 9.29658 | 36995 ft | 467 kts | 135° |
| 2026-05-06 19:39 | 57.38176 | 9.40305 | 36989 ft | 467 kts | 136° |
| 2026-05-06 19:39 | 57.34623 | 9.47968 | 36989 ft | 467 kts | 136° |
| 2026-05-06 19:40 | 57.30400 | 9.57045 | 36979 ft | 468 kts | 136° |
| 2026-05-06 19:40 | 57.26145 | 9.66157 | 36985 ft | 466 kts | 136° |
| 2026-05-06 19:41 | 57.21894 | 9.75225 | 36988 ft | 465 kts | 136° |
| 2026-05-06 19:41 | 57.17680 | 9.84185 | 36993 ft | 464 kts | 136° |
| 2026-05-06 19:42 | 57.13442 | 9.93167 | 36993 ft | 463 kts | 136° |
| 2026-05-06 19:42 | 57.09326 | 10.02299 | 36982 ft | 467 kts | 129° |
| 2026-05-06 19:43 | 57.05828 | 10.12391 | 36985 ft | 468 kts | 127° |
| 2026-05-06 19:43 | 57.02402 | 10.22553 | 36989 ft | 467 kts | 127° |
| 2026-05-06 19:44 | 56.98963 | 10.32571 | 36984 ft | 466 kts | 127° |
| 2026-05-06 19:44 | 56.95466 | 10.42605 | 36980 ft | 466 kts | 128° |
| 2026-05-06 19:45 | 56.91956 | 10.52606 | 36979 ft | 466 kts | 127° |
| 2026-05-06 19:45 | 56.88442 | 10.62580 | 36962 ft | 466 kts | 127° |
| 2026-05-06 19:46 | 56.84943 | 10.72477 | 36977 ft | 465 kts | 128° |
| 2026-05-06 19:46 | 56.81419 | 10.82406 | 36978 ft | 465 kts | 128° |
| 2026-05-06 19:47 | 56.77885 | 10.92323 | 36977 ft | 466 kts | 128° |
| 2026-05-06 19:47 | 56.74347 | 11.02213 | 36978 ft | 466 kts | 128° |
| 2026-05-06 19:48 | 56.70795 | 11.12103 | 36978 ft | 466 kts | 128° |
| 2026-05-06 19:48 | 56.67259 | 11.21915 | 36979 ft | 466 kts | 128° |
| 2026-05-06 19:49 | 56.63694 | 11.31769 | 36978 ft | 466 kts | 128° |
| 2026-05-06 19:49 | 56.60103 | 11.41617 | 36978 ft | 466 kts | 128° |
| 2026-05-06 19:50 | 56.56528 | 11.51358 | 36969 ft | 466 kts | 128° |
| 2026-05-06 19:50 | 56.52930 | 11.61141 | 36975 ft | 466 kts | 128° |
| 2026-05-06 19:51 | 56.49344 | 11.70888 | 36966 ft | 465 kts | 128° |
| 2026-05-06 19:51 | 56.45769 | 11.80619 | 36971 ft | 464 kts | 128° |
| 2026-05-06 19:52 | 56.42194 | 11.90323 | 36970 ft | 463 kts | 128° |
| 2026-05-06 19:52 | 56.38625 | 11.99967 | 36968 ft | 462 kts | 128° |
| 2026-05-06 19:53 | 56.35020 | 12.09552 | 36975 ft | 460 kts | 129° |
| 2026-05-06 19:53 | 56.31422 | 12.19012 | 36963 ft | 460 kts | 129° |
| 2026-05-06 19:54 | 56.27855 | 12.28569 | 36976 ft | 459 kts | 128° |
| 2026-05-06 19:54 | 56.24278 | 12.38104 | 36971 ft | 459 kts | 129° |
| 2026-05-06 19:55 | 56.20652 | 12.47583 | 36959 ft | 459 kts | 129° |
| 2026-05-06 19:55 | 56.17027 | 12.57029 | 36974 ft | 459 kts | 130° |
| 2026-05-06 19:56 | 56.13020 | 12.65805 | 36965 ft | 456 kts | 136° |
| 2026-05-06 19:56 | 56.08779 | 12.74295 | 36979 ft | 456 kts | 136° |
| 2026-05-06 19:57 | 56.04560 | 12.82793 | 36981 ft | 457 kts | 136° |
| 2026-05-06 19:57 | 56.00373 | 12.91324 | 36981 ft | 458 kts | 136° |
| 2026-05-06 19:58 | 55.96164 | 12.99913 | 36982 ft | 459 kts | 136° |
| 2026-05-06 19:58 | 55.91939 | 13.08506 | 36984 ft | 460 kts | 136° |
| 2026-05-06 19:59 | 55.87740 | 13.17013 | 36983 ft | 460 kts | 136° |
| 2026-05-06 19:59 | 55.83504 | 13.25561 | 36989 ft | 459 kts | 136° |
| 2026-05-06 20:00 | 55.79291 | 13.34037 | 36982 ft | 458 kts | 136° |
| 2026-05-06 20:00 | 55.75061 | 13.42514 | 36995 ft | 458 kts | 136° |
| 2026-05-06 20:01 | 55.70834 | 13.50962 | 36984 ft | 457 kts | 136° |
| 2026-05-06 20:01 | 55.66609 | 13.59373 | 36979 ft | 456 kts | 136° |
| 2026-05-06 20:02 | 55.62392 | 13.67749 | 36983 ft | 455 kts | 136° |
| 2026-05-06 20:02 | 55.58184 | 13.76125 | 36979 ft | 454 kts | 136° |
| 2026-05-06 20:03 | 55.53995 | 13.84412 | 36988 ft | 454 kts | 136° |
| 2026-05-06 20:03 | 55.49785 | 13.92718 | 36968 ft | 453 kts | 136° |
| 2026-05-06 20:04 | 55.45576 | 14.01001 | 36977 ft | 453 kts | 136° |
| 2026-05-06 20:04 | 55.41368 | 14.09254 | 36975 ft | 452 kts | 137° |
| 2026-05-06 20:05 | 55.37175 | 14.17450 | 36977 ft | 453 kts | 137° |
| 2026-05-06 20:05 | 55.33030 | 14.25524 | 36975 ft | 453 kts | 137° |
| 2026-05-06 20:06 | 55.28954 | 14.33438 | 36974 ft | 453 kts | 137° |
| 2026-05-06 20:06 | 55.24717 | 14.41636 | 36973 ft | 454 kts | 137° |
| 2026-05-06 20:07 | 55.20470 | 14.49826 | 36957 ft | 454 kts | 137° |
| 2026-05-06 20:07 | 55.16215 | 14.58004 | 36968 ft | 455 kts | 137° |
| 2026-05-06 20:08 | 55.11947 | 14.66179 | 36967 ft | 455 kts | 137° |
| 2026-05-06 20:08 | 55.07693 | 14.74301 | 36972 ft | 456 kts | 137° |
| 2026-05-06 20:09 | 55.03393 | 14.82483 | 36964 ft | 457 kts | 137° |
| 2026-05-06 20:09 | 54.99083 | 14.90658 | 36951 ft | 457 kts | 137° |
| 2026-05-06 20:10 | 54.94775 | 14.98807 | 36960 ft | 457 kts | 137° |
| 2026-05-06 20:10 | 54.90460 | 15.06941 | 36949 ft | 458 kts | 137° |
| 2026-05-06 20:11 | 54.86142 | 15.15090 | 36948 ft | 458 kts | 137° |
| 2026-05-06 20:11 | 54.81876 | 15.23216 | 36927 ft | 458 kts | 137° |
| 2026-05-06 20:12 | 54.77572 | 15.31404 | 36938 ft | 458 kts | 137° |
| 2026-05-06 20:12 | 54.73277 | 15.39539 | 36930 ft | 457 kts | 137° |
| 2026-05-06 20:13 | 54.68980 | 15.47647 | 36939 ft | 457 kts | 137° |
| 2026-05-06 20:13 | 54.64676 | 15.55748 | 36927 ft | 457 kts | 137° |
| 2026-05-06 20:14 | 54.60378 | 15.63848 | 36919 ft | 458 kts | 135° |
| 2026-05-06 20:14 | 54.56531 | 15.72626 | 36919 ft | 462 kts | 130° |
| 2026-05-06 20:15 | 54.52816 | 15.81664 | 36916 ft | 462 kts | 130° |
| 2026-05-06 20:15 | 54.49077 | 15.90656 | 36913 ft | 462 kts | 131° |
| 2026-05-06 20:16 | 54.45299 | 15.99598 | 36899 ft | 461 kts | 131° |
| 2026-05-06 20:16 | 54.41529 | 16.08448 | 36903 ft | 461 kts | 131° |
| 2026-05-06 20:17 | 54.37736 | 16.17316 | 36903 ft | 460 kts | 131° |
| 2026-05-06 20:17 | 54.33946 | 16.26150 | 36895 ft | 459 kts | 131° |
| 2026-05-06 20:18 | 54.30152 | 16.34965 | 36899 ft | 459 kts | 131° |
| 2026-05-06 20:18 | 54.26352 | 16.43763 | 36897 ft | 459 kts | 131° |
| 2026-05-06 20:19 | 54.22552 | 16.52530 | 36895 ft | 459 kts | 132° |
| 2026-05-06 20:19 | 54.18757 | 16.61255 | 36888 ft | 459 kts | 132° |
| 2026-05-06 20:20 | 54.14937 | 16.70010 | 36888 ft | 459 kts | 132° |
| 2026-05-06 20:20 | 54.11140 | 16.78683 | 36886 ft | 459 kts | 132° |
| 2026-05-06 20:21 | 54.07311 | 16.87403 | 36864 ft | 459 kts | 133° |
| 2026-05-06 20:21 | 54.03482 | 16.96097 | 36882 ft | 458 kts | 133° |
| 2026-05-06 20:22 | 53.99644 | 17.04762 | 36874 ft | 458 kts | 133° |
| 2026-05-06 20:22 | 53.95791 | 17.13389 | 36868 ft | 458 kts | 133° |
| 2026-05-06 20:23 | 53.91926 | 17.22020 | 36871 ft | 458 kts | 133° |
| 2026-05-06 20:23 | 53.88091 | 17.30569 | 36869 ft | 459 kts | 133° |
| 2026-05-06 20:24 | 53.84220 | 17.39172 | 36866 ft | 459 kts | 133° |
| 2026-05-06 20:24 | 53.80343 | 17.47761 | 36863 ft | 459 kts | 133° |
| 2026-05-06 20:25 | 53.77113 | 17.54895 | 36863 ft | 459 kts | 133° |
| 2026-05-06 20:25 | 53.72583 | 17.64864 | 36861 ft | 459 kts | 133° |
| 2026-05-06 20:26 | 53.69318 | 17.72027 | 36855 ft | 460 kts | 133° |
| 2026-05-06 20:26 | 53.65433 | 17.80526 | 36850 ft | 459 kts | 133° |
| 2026-05-06 20:27 | 53.61529 | 17.89046 | 36850 ft | 459 kts | 133° |
| 2026-05-06 20:27 | 53.57612 | 17.97556 | 36839 ft | 459 kts | 133° |
| 2026-05-06 20:28 | 53.53696 | 18.06026 | 36839 ft | 458 kts | 133° |
| 2026-05-06 20:28 | 53.49773 | 18.14489 | 36836 ft | 458 kts | 133° |
| 2026-05-06 20:29 | 53.45881 | 18.22869 | 36837 ft | 457 kts | 134° |
| 2026-05-06 20:29 | 53.41962 | 18.31284 | 36831 ft | 457 kts | 134° |
| 2026-05-06 20:30 | 53.36082 | 18.43859 | 36816 ft | 456 kts | 134° |
| 2026-05-06 20:31 | 53.32184 | 18.52161 | 36829 ft | 456 kts | 134° |
| 2026-05-06 20:31 | 53.28258 | 18.60495 | 36801 ft | 456 kts | 134° |
| 2026-05-06 20:31 | 53.26285 | 18.64670 | 36614 ft | 460 kts | 134° |
| 2026-05-06 20:32 | 53.24291 | 18.68882 | 36120 ft | 461 kts | 134° |
| 2026-05-06 20:32 | 53.22310 | 18.73066 | 35509 ft | 459 kts | 134° |
| 2026-05-06 20:32 | 53.20329 | 18.77244 | 34905 ft | 459 kts | 135° |
| 2026-05-06 20:32 | 53.18344 | 18.81421 | 34288 ft | 459 kts | 135° |
| 2026-05-06 20:33 | 53.16354 | 18.85603 | 33608 ft | 460 kts | 135° |
| 2026-05-06 20:33 | 53.14358 | 18.89790 | 32848 ft | 460 kts | 135° |
| 2026-05-06 20:33 | 53.12369 | 18.93961 | 32151 ft | 460 kts | 135° |
| 2026-05-06 20:33 | 53.10380 | 18.98118 | 31533 ft | 458 kts | 135° |
| 2026-05-06 20:34 | 53.08435 | 19.02180 | 31074 ft | 452 kts | 135° |
| 2026-05-06 20:34 | 53.06476 | 19.06253 | 30574 ft | 447 kts | 136° |
| 2026-05-06 20:34 | 53.04541 | 19.10265 | 30094 ft | 442 kts | 136° |
| 2026-05-06 20:34 | 53.02620 | 19.14241 | 29545 ft | 437 kts | 136° |
| 2026-05-06 20:35 | 53.00728 | 19.18155 | 29069 ft | 431 kts | 136° |
| 2026-05-06 20:35 | 52.98862 | 19.22011 | 28573 ft | 426 kts | 136° |
| 2026-05-06 20:35 | 52.97020 | 19.25815 | 28100 ft | 420 kts | 136° |
| 2026-05-06 20:35 | 52.95194 | 19.29579 | 27617 ft | 416 kts | 136° |
| 2026-05-06 20:36 | 52.93386 | 19.33300 | 27135 ft | 412 kts | 136° |
| 2026-05-06 20:36 | 52.91595 | 19.36982 | 26673 ft | 408 kts | 136° |
| 2026-05-06 20:36 | 52.89846 | 19.40571 | 26199 ft | 404 kts | 136° |
| 2026-05-06 20:36 | 52.88086 | 19.44178 | 25761 ft | 400 kts | 136° |
| 2026-05-06 20:37 | 52.86343 | 19.47747 | 25300 ft | 397 kts | 136° |
| 2026-05-06 20:37 | 52.84614 | 19.51280 | 24853 ft | 394 kts | 136° |
| 2026-05-06 20:37 | 52.82896 | 19.54788 | 24384 ft | 391 kts | 136° |
| 2026-05-06 20:37 | 52.81191 | 19.58264 | 23955 ft | 388 kts | 136° |
| 2026-05-06 20:38 | 52.79493 | 19.61720 | 23522 ft | 386 kts | 136° |
| 2026-05-06 20:38 | 52.77804 | 19.65157 | 23025 ft | 384 kts | 135° |
| 2026-05-06 20:38 | 52.76121 | 19.68576 | 22529 ft | 381 kts | 135° |
| 2026-05-06 20:38 | 52.74454 | 19.71963 | 22086 ft | 377 kts | 135° |
| 2026-05-06 20:39 | 52.72806 | 19.75304 | 21627 ft | 374 kts | 136° |
| 2026-05-06 20:39 | 52.71183 | 19.78584 | 21185 ft | 371 kts | 136° |
| 2026-05-06 20:39 | 52.69553 | 19.81884 | 20750 ft | 369 kts | 134° |
| 2026-05-06 20:39 | 52.68106 | 19.85403 | 20381 ft | 372 kts | 127° |
| 2026-05-06 20:40 | 52.66811 | 19.89135 | 20022 ft | 378 kts | 125° |
| 2026-05-06 20:40 | 52.65539 | 19.92969 | 19652 ft | 383 kts | 124° |
| 2026-05-06 20:40 | 52.64254 | 19.96838 | 19265 ft | 384 kts | 124° |
| 2026-05-06 20:40 | 52.62966 | 20.00664 | 18878 ft | 380 kts | 125° |
| 2026-05-06 20:41 | 52.61673 | 20.04446 | 18501 ft | 378 kts | 125° |
| 2026-05-06 20:41 | 52.60377 | 20.08195 | 18121 ft | 375 kts | 126° |
| 2026-05-06 20:41 | 52.59100 | 20.11861 | 17710 ft | 373 kts | 126° |
| 2026-05-06 20:41 | 52.57811 | 20.15548 | 17306 ft | 370 kts | 126° |
| 2026-05-06 20:42 | 52.56526 | 20.19217 | 16929 ft | 367 kts | 126° |
| 2026-05-06 20:42 | 52.55253 | 20.22850 | 16550 ft | 365 kts | 126° |
| 2026-05-06 20:42 | 52.53993 | 20.26440 | 16186 ft | 360 kts | 126° |
| 2026-05-06 20:42 | 52.52747 | 20.29983 | 15825 ft | 355 kts | 126° |
| 2026-05-06 20:43 | 52.51517 | 20.33471 | 15476 ft | 351 kts | 126° |
| 2026-05-06 20:43 | 52.50321 | 20.36879 | 15107 ft | 347 kts | 125° |
| 2026-05-06 20:43 | 52.49131 | 20.40295 | 14788 ft | 343 kts | 125° |
| 2026-05-06 20:43 | 52.47955 | 20.43678 | 14451 ft | 339 kts | 125° |
| 2026-05-06 20:44 | 52.46792 | 20.47020 | 14108 ft | 335 kts | 125° |
| 2026-05-06 20:44 | 52.45639 | 20.50329 | 13787 ft | 332 kts | 125° |
| 2026-05-06 20:44 | 52.44499 | 20.53595 | 13440 ft | 329 kts | 125° |
| 2026-05-06 20:44 | 52.43368 | 20.56836 | 13081 ft | 326 kts | 125° |
| 2026-05-06 20:45 | 52.42246 | 20.60046 | 12738 ft | 323 kts | 125° |
| 2026-05-06 20:45 | 52.41134 | 20.63225 | 12421 ft | 319 kts | 125° |
| 2026-05-06 20:45 | 52.40032 | 20.66363 | 12104 ft | 316 kts | 125° |
| 2026-05-06 20:45 | 52.38955 | 20.69422 | 11793 ft | 312 kts | 125° |
| 2026-05-06 20:46 | 52.37877 | 20.72483 | 11510 ft | 308 kts | 125° |
| 2026-05-06 20:46 | 52.36808 | 20.75511 | 11231 ft | 305 kts | 126° |
| 2026-05-06 20:46 | 52.35753 | 20.78496 | 10940 ft | 301 kts | 126° |
| 2026-05-06 20:46 | 52.34715 | 20.81433 | 10679 ft | 297 kts | 126° |
| 2026-05-06 20:47 | 52.33687 | 20.84352 | 10423 ft | 295 kts | 124° |
| 2026-05-06 20:47 | 52.32707 | 20.87289 | 10159 ft | 292 kts | 126° |
| 2026-05-06 20:47 | 52.31674 | 20.90133 | 9887 ft | 290 kts | 127° |
| 2026-05-06 20:47 | 52.30652 | 20.92947 | 9626 ft | 288 kts | 127° |
| 2026-05-06 20:48 | 52.29653 | 20.95730 | 9353 ft | 287 kts | 126° |
| 2026-05-06 20:48 | 52.28645 | 20.98551 | 9072 ft | 285 kts | 126° |
| 2026-05-06 20:48 | 52.27644 | 21.01339 | 8808 ft | 282 kts | 128° |
| 2026-05-06 20:48 | 52.26322 | 21.03588 | 8549 ft | 269 kts | 153° |
| 2026-05-06 20:49 | 52.24695 | 21.05037 | 8340 ft | 267 kts | 158° |
| 2026-05-06 20:49 | 52.23033 | 21.06437 | 8087 ft | 270 kts | 158° |
| 2026-05-06 20:49 | 52.21386 | 21.07832 | 7845 ft | 269 kts | 157° |
| 2026-05-06 20:49 | 52.19733 | 21.09247 | 7597 ft | 266 kts | 157° |
| 2026-05-06 20:50 | 52.18109 | 21.10641 | 7357 ft | 262 kts | 157° |
| 2026-05-06 20:50 | 52.16520 | 21.12009 | 7278 ft | 253 kts | 157° |
| 2026-05-06 20:50 | 52.14975 | 21.13338 | 7080 ft | 249 kts | 156° |
| 2026-05-06 20:50 | 52.13453 | 21.14665 | 6878 ft | 246 kts | 156° |
| 2026-05-06 20:51 | 52.11955 | 21.15978 | 6656 ft | 243 kts | 156° |
| 2026-05-06 20:51 | 52.10470 | 21.17279 | 6445 ft | 241 kts | 156° |
| 2026-05-06 20:51 | 52.08996 | 21.18569 | 6233 ft | 239 kts | 156° |
| 2026-05-06 20:51 | 52.07538 | 21.19846 | 6004 ft | 237 kts | 156° |
| 2026-05-06 20:52 | 52.06107 | 21.21098 | 5787 ft | 236 kts | 156° |
| 2026-05-06 20:52 | 52.04665 | 21.22357 | 5577 ft | 234 kts | 156° |
| 2026-05-06 20:52 | 52.03238 | 21.23601 | 5342 ft | 232 kts | 155° |
| 2026-05-06 20:52 | 52.01822 | 21.24832 | 5148 ft | 230 kts | 155° |
| 2026-05-06 20:53 | 52.00418 | 21.26053 | 5021 ft | 226 kts | 155° |
| 2026-05-06 20:53 | 51.99033 | 21.27248 | 4929 ft | 226 kts | 156° |
| 2026-05-06 20:53 | 51.97635 | 21.28449 | 4694 ft | 228 kts | 155° |
| 2026-05-06 20:53 | 51.96160 | 21.29352 | 4365 ft | 226 kts | 180° |
| 2026-05-06 20:54 | 51.94706 | 21.28635 | 4111 ft | 222 kts | 221° |
| 2026-05-06 20:54 | 51.93939 | 21.26534 | 3821 ft | 224 kts | 261° |
| 2026-05-06 20:54 | 51.94247 | 21.24078 | 3559 ft | 231 kts | 301° |
| 2026-05-06 20:54 | 51.95431 | 21.22304 | 3351 ft | 232 kts | 316° |
| 2026-05-06 20:55 | 51.96270 | 21.20211 | 3097 ft | 224 kts | 279° |
| 2026-05-06 20:55 | 51.96511 | 21.17795 | 3116 ft | 212 kts | 278° |
| 2026-05-06 20:55 | 51.96776 | 21.15499 | 3045 ft | 205 kts | 281° |
| 2026-05-06 20:55 | 51.97498 | 21.13558 | 3049 ft | 207 kts | 322° |
| 2026-05-06 20:56 | 51.98787 | 21.12460 | 3046 ft | 211 kts | 328° |
| 2026-05-06 20:56 | 52.00073 | 21.11272 | 3012 ft | 213 kts | 327° |
| 2026-05-06 20:56 | 52.01353 | 21.10086 | 3001 ft | 210 kts | 328° |
| 2026-05-06 20:56 | 52.02621 | 21.08954 | 3026 ft | 207 kts | 328° |
| 2026-05-06 20:57 | 52.03863 | 21.07861 | 2881 ft | 198 kts | 328° |
| 2026-05-06 20:57 | 52.05041 | 21.06834 | 2660 ft | 185 kts | 328° |
| 2026-05-06 20:57 | 52.06140 | 21.05865 | 2425 ft | 176 kts | 328° |
| 2026-05-06 20:57 | 52.07181 | 21.04950 | 2231 ft | 169 kts | 327° |
| 2026-05-06 20:58 | 52.08192 | 21.04063 | 2001 ft | 161 kts | 329° |
| 2026-05-06 20:58 | 52.09147 | 21.03218 | 1779 ft | 153 kts | 327° |
| 2026-05-06 20:58 | 52.10062 | 21.02421 | 1576 ft | 146 kts | 327° |
| 2026-05-06 20:58 | 52.10963 | 21.01626 | 1313 ft | 147 kts | 326° |
| 2026-05-06 20:59 | 52.11865 | 21.00835 | 1155 ft | 146 kts | 332° |
| 2026-05-06 20:59 | 52.12765 | 21.00050 | 994 ft | 147 kts | 329° |
| 2026-05-06 20:59 | 52.13681 | 20.99233 | 773 ft | 152 kts | 328° |
| 2026-05-06 20:59 | 52.14604 | 20.98369 | 512 ft | 155 kts | 331° |
| 2026-05-06 21:00 | 52.15543 | 20.97587 | 360 ft | 152 kts | 325° |
| 2026-05-06 21:00 | 52.16532 | 20.96601 | 929 ft | 179 kts | 327° |
| 2026-05-06 21:00 | 52.17690 | 20.95486 | 1165 ft | 197 kts | 328° |
| 2026-05-06 21:00 | 52.18850 | 20.94348 | 1642 ft | 192 kts | 311° |
| 2026-05-06 21:01 | 52.19328 | 20.92360 | 1985 ft | 196 kts | 265° |
| 2026-05-06 21:01 | 52.18705 | 20.90416 | 2219 ft | 204 kts | 218° |
| 2026-05-06 21:01 | 52.17392 | 20.89657 | 2401 ft | 209 kts | 179° |
| 2026-05-06 21:01 | 52.15972 | 20.90302 | 2515 ft | 213 kts | 158° |
| 2026-05-06 21:02 | 52.14702 | 20.91544 | 2385 ft | 215 kts | 147° |
| 2026-05-06 21:02 | 52.13424 | 20.92843 | 2233 ft | 215 kts | 154° |
| 2026-05-06 21:02 | 52.12109 | 20.93957 | 2072 ft | 217 kts | 153° |
| 2026-05-06 21:02 | 52.10790 | 20.95217 | 1850 ft | 220 kts | 149° |
| 2026-05-06 21:03 | 52.09531 | 20.96578 | 1825 ft | 214 kts | 146° |
| 2026-05-06 21:03 | 52.08342 | 20.98030 | 1733 ft | 210 kts | 137° |
| 2026-05-06 21:03 | 52.07662 | 21.00098 | 1417 ft | 216 kts | 91° |
| 2026-05-06 21:03 | 52.08273 | 21.02104 | 1142 ft | 194 kts | 29° |
| 2026-05-06 21:04 | 52.09505 | 21.02301 | 962 ft | 172 kts | 343° |
| 2026-05-06 21:04 | 52.10645 | 21.01754 | 739 ft | 171 kts | 341° |
| 2026-05-06 21:04 | 52.11693 | 21.00971 | 688 ft | 164 kts | 326° |
| 2026-05-06 21:04 | 52.12600 | 21.00057 | 732 ft | 145 kts | 328° |
| 2026-05-06 21:05 | 52.13508 | 20.99343 | 563 ft | 146 kts | 329° |
| 2026-05-06 21:05 | 52.14401 | 20.98579 | 457 ft | 148 kts | 332° |
| 2026-05-06 21:05 | 52.15323 | 20.97791 | 368 ft | 151 kts | 329° |
| 2026-05-06 21:05 | 52.16231 | 20.96985 | 337 ft | 144 kts | 333° |
| 2026-05-06 21:06 | 52.16946 | 20.96388 | 334 ft | 85 kts | 332° |
| 2026-05-06 21:06 | 52.17314 | 20.96092 | 336 ft | 24 kts | 346° |
| 2026-05-06 21:06 | 52.17455 | 20.96060 | 336 ft | 20 kts | 356° |
| 2026-05-06 21:06 | 52.17565 | 20.96083 | 338 ft | 10 kts | 33° |
| 2026-05-06 21:07 | 52.17589 | 20.96185 | 338 ft | 10 kts | 110° |
| 2026-05-06 21:07 | 52.17550 | 20.96281 | 352 ft | 10 kts | 129° |
| 2026-05-06 21:07 | 52.17489 | 20.96324 | 336 ft | 10 kts | 156° |
| 2026-05-06 21:07 | 52.17437 | 20.96387 | 338 ft | 9 kts | 108° |
| 2026-05-06 21:08 | 52.17461 | 20.96482 | 337 ft | 9 kts | 58° |
| 2026-05-06 21:08 | 52.17501 | 20.96557 | 336 ft | 9 kts | 25° |
| 2026-05-06 21:08 | 52.17530 | 20.96570 | 338 ft | 2 kts | 51° |
| 2026-05-06 21:08 | 52.17540 | 20.96626 | 334 ft | 11 kts | 70° |
| 2026-05-06 21:09 | 52.17562 | 20.96706 | 335 ft | 2 kts | 63° |
| 2026-05-06 21:09 | 52.17590 | 20.96774 | 333 ft | 7 kts | 41° |
| 2026-05-06 21:09 | 52.17632 | 20.96757 | 338 ft | 4 kts | 317° |
| 2026-05-06 21:09 | 52.17630 | 20.96711 | 337 ft | 5 kts | 237° |
| 2026-05-06 21:10 | 52.17618 | 20.96683 | 338 ft | 3 kts | 236° |
| 2026-05-06 21:10 | 52.17616 | 20.96678 | 338 ft | 0 kts | 235° |